createdAt,value
2022-08-05T00:01:35.620Z,3.92
2022-08-05T00:04:19.144Z,3.00
2022-08-05T00:06:51.683Z,5.70
2022-08-05T00:09:20.542Z,4.72
2022-08-05T00:11:55.790Z,3.40
2022-08-05T00:14:29.121Z,3.78
2022-08-05T00:16:57.791Z,3.92
2022-08-05T00:19:33.477Z,3.08
2022-08-05T00:22:02.612Z,4.30
2022-08-05T00:24:31.595Z,3.35
2022-08-05T00:27:01.093Z,4.30
2022-08-05T00:29:38.219Z,4.10
2022-08-05T00:32:12.634Z,6.63
2022-08-05T00:35:03.593Z,3.60
2022-08-05T00:37:50.528Z,5.38
2022-08-05T00:40:28.082Z,3.40
2022-08-05T00:42:57.240Z,5.03
2022-08-05T00:45:28.248Z,4.53
2022-08-05T00:48:06.413Z,3.78
2022-08-05T00:50:34.603Z,4.63
2022-08-05T00:53:03.263Z,3.20
2022-08-05T00:55:42.833Z,4.15
2022-08-05T00:58:17.117Z,3.95
2022-08-05T01:00:47.935Z,4.43
2022-08-05T01:03:22.530Z,4.35
2022-08-05T01:05:51.595Z,4.22
2022-08-05T01:08:41.465Z,4.10
2022-08-05T01:11:21.850Z,4.25
2022-08-05T01:13:58.752Z,3.20
2022-08-05T01:16:52.897Z,4.22
2022-08-05T01:19:36.831Z,4.00
2022-08-05T01:22:31.813Z,3.58
2022-08-05T01:25:13.654Z,3.83
2022-08-05T01:28:13.698Z,3.50
2022-08-05T01:30:53.554Z,4.10
2022-08-05T01:33:26.191Z,4.50
2022-08-05T01:35:55.614Z,3.13
2022-08-05T01:38:29.231Z,3.25
2022-08-05T01:41:01.974Z,4.60
2022-08-05T01:43:30.787Z,3.40
2022-08-05T01:46:07.363Z,4.47
2022-08-05T01:48:49.738Z,3.97
2022-08-05T01:51:20.547Z,2.58
2022-08-05T01:53:57.199Z,3.85
2022-08-05T01:58:18.880Z,3.72
2022-08-05T01:59:23.693Z,3.55
2022-08-05T02:01:55.759Z,3.80
2022-08-05T02:04:30.005Z,2.80
2022-08-05T02:06:58.329Z,2.60
2022-08-05T02:09:25.769Z,2.97
2022-08-05T02:11:58.461Z,3.67
2022-08-05T02:14:32.132Z,3.20
2022-08-05T02:17:04.532Z,3.72
2022-08-05T02:19:34.988Z,3.33
2022-08-05T02:22:26.999Z,2.60
2022-08-05T02:25:06.016Z,3.20
2022-08-05T02:27:58.009Z,2.83
2022-08-05T02:30:26.981Z,2.97
2022-08-05T02:32:56.977Z,3.80
2022-08-05T02:35:28.145Z,3.22
2022-08-05T02:38:02.377Z,2.20
2022-08-05T02:40:30.357Z,2.42
2022-08-05T02:42:58.619Z,6.10
2022-08-05T02:45:26.438Z,4.38
2022-08-05T02:48:07.113Z,2.30
2022-08-05T02:50:46.048Z,3.05
2022-08-05T02:53:18.668Z,2.35
2022-08-05T02:56:00.073Z,2.88
2022-08-05T02:58:30.491Z,2.35
2022-08-05T03:00:59.912Z,2.50
2022-08-05T03:03:33.592Z,3.33
2022-08-05T03:06:56.938Z,3.72
2022-08-05T03:08:52.899Z,2.40
2022-08-05T03:11:56.910Z,2.40
2022-08-05T03:14:09.409Z,3.33
2022-08-05T03:16:41.182Z,2.67
2022-08-05T03:19:17.278Z,3.67
2022-08-05T03:21:56.548Z,2.40
2022-08-05T03:24:30.113Z,3.47
2022-08-05T03:26:58.919Z,2.30
2022-08-05T03:29:44.864Z,2.22
2022-08-05T03:32:15.487Z,3.38
2022-08-05T03:34:50.432Z,2.53
2022-08-05T03:37:19.346Z,3.08
2022-08-05T03:39:59.317Z,2.75
2022-08-05T03:42:32.171Z,2.40
2022-08-05T03:45:01.767Z,2.58
2022-08-05T03:47:47.433Z,2.13
2022-08-05T03:50:16.799Z,2.65
2022-08-05T03:55:34.040Z,1.95
2022-08-05T03:56:04.086Z,2.33
2022-08-05T03:58:33.571Z,5.22
2022-08-05T04:01:04.074Z,3.47
2022-08-05T04:03:38.107Z,2.20
2022-08-05T04:06:08.799Z,2.75
2022-08-05T04:08:37.103Z,2.00
2022-08-05T04:11:07.430Z,3.83
2022-08-05T04:13:50.672Z,3.83
2022-08-05T04:16:25.223Z,1.90
2022-08-05T04:19:00.063Z,1.80
2022-08-05T04:22:08.560Z,3.70
2022-08-05T04:24:19.274Z,4.55
2022-08-05T04:26:49.886Z,1.98
2022-08-05T04:29:17.398Z,2.03
2022-08-05T04:31:44.461Z,2.42
2022-08-05T04:34:19.650Z,2.00
2022-08-05T04:37:03.241Z,2.97
2022-08-05T04:39:32.071Z,2.65
2022-08-05T04:41:59.140Z,1.85
2022-08-05T04:44:30.282Z,2.90
2022-08-05T04:46:59.666Z,2.00
2022-08-05T04:49:38.883Z,2.35
2022-08-05T04:52:16.339Z,1.83
2022-08-05T04:54:43.445Z,2.63
2022-08-05T04:57:10.712Z,3.40
2022-08-05T04:59:40.480Z,2.05
2022-08-05T05:02:37.020Z,2.55
2022-08-05T05:05:02.131Z,1.90
2022-08-05T05:07:32.409Z,2.75
2022-08-05T05:10:04.394Z,2.95
2022-08-05T05:12:31.899Z,1.92
2022-08-05T05:15:03.838Z,1.90
2022-08-05T05:17:56.158Z,1.50
2022-08-05T05:20:28.445Z,2.95
2022-08-05T05:23:08.129Z,2.45
2022-08-05T05:25:46.494Z,2.30
2022-08-05T05:28:15.008Z,1.77
2022-08-05T05:30:42.863Z,2.20
2022-08-05T05:33:23.298Z,2.53
2022-08-05T05:35:50.756Z,2.10
2022-08-05T05:38:22.457Z,2.13
2022-08-05T05:40:56.093Z,2.20
2022-08-05T05:43:57.523Z,1.95
2022-08-05T05:46:17.323Z,2.00
2022-08-05T05:48:48.121Z,1.60
2022-08-05T05:51:22.809Z,2.85
2022-08-05T05:53:57.186Z,1.70
2022-08-05T05:56:33.279Z,2.55
2022-08-05T05:59:05.387Z,1.60
2022-08-05T06:01:40.272Z,1.95
2022-08-05T06:04:14.303Z,2.47
2022-08-05T06:06:47.486Z,3.33
2022-08-05T06:09:26.530Z,3.08
2022-08-05T06:12:04.290Z,3.88
2022-08-05T06:14:32.106Z,2.42
2022-08-05T06:17:01.985Z,3.63
2022-08-05T06:19:34.009Z,1.85
2022-08-05T06:22:02.976Z,2.05
2022-08-05T06:24:30.856Z,2.28
2022-08-05T06:27:00.361Z,1.77
2022-08-05T06:29:46.266Z,2.17
2022-08-05T06:32:24.850Z,1.70
2022-08-05T06:34:56.707Z,1.55
2022-08-05T06:37:57.543Z,3.17
2022-08-05T06:40:13.738Z,1.70
2022-08-05T06:42:41.549Z,3.67
2022-08-05T06:45:09.674Z,1.60
2022-08-05T06:48:36.988Z,1.90
2022-08-05T06:50:36.194Z,1.58
2022-08-05T06:53:19.649Z,1.42
2022-08-05T06:55:50.192Z,2.28
2022-08-05T06:58:29.873Z,1.70
2022-08-05T07:01:03.840Z,1.63
2022-08-05T07:03:33.205Z,2.55
2022-08-05T07:06:05.886Z,1.65
2022-08-05T07:08:47.191Z,1.60
2022-08-05T07:11:15.946Z,2.58
2022-08-05T07:14:02.461Z,2.95
2022-08-05T07:17:56.227Z,2.92
2022-08-05T07:22:28.961Z,3.00
2022-08-05T07:25:22.869Z,1.77
2022-08-05T07:27:58.798Z,1.67
2022-08-05T07:30:32.750Z,2.00
2022-08-05T07:33:05.154Z,1.98
2022-08-05T07:36:04.656Z,3.05
2022-08-05T07:38:32.305Z,3.30
2022-08-05T07:41:34.958Z,1.88
2022-08-05T07:43:58.049Z,2.17
2022-08-05T07:46:26.869Z,1.83
2022-08-05T07:49:03.978Z,1.88
2022-08-05T07:51:53.777Z,1.70
2022-08-05T07:54:31.286Z,2.72
2022-08-05T07:57:23.695Z,1.60
2022-08-05T07:59:49.970Z,2.40
2022-08-05T08:02:18.033Z,2.65
2022-08-05T08:04:46.761Z,1.63
2022-08-05T08:07:15.040Z,2.13
2022-08-05T08:09:42.748Z,2.15
2022-08-05T08:12:29.663Z,2.92
2022-08-05T08:14:57.794Z,1.73
2022-08-05T08:17:30.429Z,1.60
2022-08-05T08:20:22.670Z,2.15
2022-08-05T08:22:51.122Z,2.53
2022-08-05T08:25:27.164Z,1.60
2022-08-05T08:28:06.744Z,1.80
2022-08-05T08:30:47.862Z,1.75
2022-08-05T08:33:17.697Z,1.73
2022-08-05T08:35:52.982Z,1.60
2022-08-05T08:38:35.094Z,1.58
2022-08-05T08:41:10.731Z,1.48
2022-08-05T08:45:18.730Z,1.60
2022-08-05T08:46:32.141Z,1.42
2022-08-05T08:50:07.776Z,1.40
2022-08-05T08:52:13.141Z,2.92
2022-08-05T08:54:53.704Z,2.70
2022-08-05T08:57:22.592Z,1.40
2022-08-05T08:59:50.995Z,1.40
2022-08-05T09:02:20.923Z,1.65
2022-08-05T09:05:16.572Z,1.67
2022-08-05T09:07:57.450Z,1.55
2022-08-05T09:10:27.099Z,1.77
2022-08-05T09:13:04.484Z,1.30
2022-08-05T09:15:36.946Z,1.83
2022-08-05T09:18:09.006Z,1.27
2022-08-05T09:20:38.483Z,1.40
2022-08-05T09:23:19.748Z,1.40
2022-08-05T09:26:02.981Z,1.95
2022-08-05T09:28:33.779Z,1.60
2022-08-05T09:31:22.252Z,1.23
2022-08-05T09:34:01.617Z,1.42
2022-08-05T09:36:55.186Z,1.50
2022-08-05T09:39:41.973Z,1.35
2022-08-05T09:42:24.437Z,1.33
2022-08-05T09:45:03.369Z,1.10
2022-08-05T09:47:56.295Z,1.15
2022-08-05T09:50:43.684Z,1.20
2022-08-05T09:53:22.840Z,1.13
2022-08-05T09:56:11.394Z,2.00
2022-08-05T09:58:42.570Z,1.50
2022-08-05T10:01:22.485Z,1.52
2022-08-05T10:04:10.328Z,1.23
2022-08-05T10:06:40.682Z,1.30
2022-08-05T10:09:24.952Z,1.48
2022-08-05T10:11:55.332Z,1.40
2022-08-05T10:14:32.251Z,1.42
2022-08-05T10:17:38.029Z,1.50
2022-08-05T10:20:09.769Z,1.98
2022-08-05T10:22:39.778Z,1.08
2022-08-05T10:25:10.816Z,1.00
2022-08-05T10:28:13.231Z,1.15
2022-08-05T10:31:20.669Z,1.10
2022-08-05T10:33:18.056Z,0.88
2022-08-05T10:35:59.008Z,1.00
2022-08-05T10:38:28.883Z,1.00
2022-08-05T10:41:23.442Z,1.02
2022-08-05T10:43:51.172Z,1.40
2022-08-05T10:46:19.381Z,1.40
2022-08-05T10:49:02.737Z,1.10
2022-08-05T10:51:59.942Z,2.33
2022-08-05T10:54:57.756Z,1.13
2022-08-05T10:57:31.033Z,1.73
2022-08-05T11:00:18.217Z,2.33
2022-08-05T11:03:23.134Z,2.92
2022-08-05T11:06:05.647Z,1.80
2022-08-05T11:08:37.271Z,1.65
2022-08-05T11:11:33.141Z,1.52
2022-08-05T11:14:12.977Z,1.75
2022-08-05T11:16:47.885Z,1.70
2022-08-05T11:20:16.465Z,1.80
2022-08-05T11:22:39.578Z,1.70
2022-08-05T11:26:05.499Z,1.80
2022-08-05T11:28:17.064Z,1.80
2022-08-05T11:31:01.833Z,1.35
2022-08-05T11:33:55.856Z,3.60
2022-08-05T11:36:47.319Z,1.63
2022-08-05T11:40:02.741Z,3.10
2022-08-05T11:42:32.466Z,1.58
2022-08-05T11:45:26.766Z,1.75
2022-08-05T11:47:55.954Z,2.03
2022-08-05T11:50:25.216Z,2.05
2022-08-05T11:52:57.621Z,4.35
2022-08-05T11:55:31.584Z,2.13
2022-08-05T11:58:10.690Z,3.08
2022-08-05T12:00:41.179Z,2.47
2022-08-05T12:03:28.480Z,1.45
2022-08-05T12:06:06.067Z,1.60
2022-08-05T12:08:49.787Z,2.30
2022-08-05T12:11:20.699Z,2.55
2022-08-05T12:13:55.060Z,2.10
2022-08-05T12:16:27.371Z,3.00
2022-08-05T12:18:56.393Z,3.15
2022-08-05T12:21:26.849Z,2.40
2022-08-05T12:24:04.959Z,2.10
2022-08-05T12:26:34.449Z,3.47
2022-08-05T12:29:03.171Z,2.20
2022-08-05T12:31:46.024Z,2.20
2022-08-05T12:34:21.096Z,2.72
2022-08-05T12:36:49.372Z,1.90
2022-08-05T12:39:17.824Z,3.20
2022-08-05T12:41:45.972Z,1.95
2022-08-05T12:44:28.443Z,2.80
2022-08-05T12:47:02.426Z,3.83
2022-08-05T12:50:03.669Z,2.35
2022-08-05T12:52:41.832Z,3.92
2022-08-05T12:55:25.618Z,1.70
2022-08-05T12:58:49.408Z,2.63
2022-08-05T13:02:02.672Z,1.75
2022-08-05T13:03:31.959Z,3.85
2022-08-05T13:06:00.073Z,1.98
2022-08-05T13:08:32.806Z,1.88
2022-08-05T13:11:04.356Z,2.10
2022-08-05T13:14:05.886Z,4.50
2022-08-05T13:16:20.839Z,2.17
2022-08-05T13:18:58.345Z,3.70
2022-08-05T13:21:27.714Z,3.38
2022-08-05T13:23:56.262Z,2.00
2022-08-05T13:26:30.296Z,2.63
2022-08-05T13:28:59.220Z,3.88
2022-08-05T13:32:02.836Z,2.53
2022-08-05T13:34:21.550Z,2.70
2022-08-05T13:36:52.943Z,2.20
2022-08-05T13:39:24.443Z,2.88
2022-08-05T13:42:14.820Z,4.13
2022-08-05T13:44:46.308Z,3.35
2022-08-05T13:47:35.429Z,4.35
2022-08-05T13:50:04.768Z,3.25
2022-08-05T13:52:35.702Z,4.32
2022-08-05T13:55:07.683Z,3.35
2022-08-05T13:57:51.549Z,4.50
2022-08-05T14:00:27.272Z,4.07
2022-08-05T14:02:56.231Z,3.75
2022-08-05T14:05:29.523Z,2.92
2022-08-05T14:08:21.396Z,5.53
2022-08-05T14:11:03.125Z,6.75
2022-08-05T14:13:43.522Z,3.67
2022-08-05T14:16:16.733Z,3.50
2022-08-05T14:18:44.713Z,7.72
2022-08-05T14:22:07.137Z,4.65
2022-08-05T14:24:00.663Z,3.67
2022-08-05T14:26:37.026Z,7.35
2022-08-05T14:29:16.263Z,3.88
2022-08-05T14:32:03.519Z,3.40
2022-08-05T14:34:35.456Z,8.88
2022-08-05T14:37:03.695Z,3.17
2022-08-05T14:39:49.586Z,3.70
2022-08-05T14:42:29.304Z,6.68
2022-08-05T14:44:56.898Z,6.05
2022-08-05T14:48:03.747Z,5.35
2022-08-05T14:50:18.061Z,3.95
2022-08-05T14:52:52.925Z,3.42
2022-08-05T14:55:20.846Z,3.25
2022-08-05T14:57:54.721Z,4.40
2022-08-05T15:00:28.143Z,4.43
2022-08-05T15:02:58.216Z,3.40
2022-08-05T15:05:29.817Z,2.60
2022-08-05T15:08:08.913Z,2.42
2022-08-05T15:10:43.494Z,2.75
2022-08-05T15:13:13.459Z,3.33
2022-08-05T15:15:55.468Z,2.88
2022-08-05T15:18:25.134Z,3.20
2022-08-05T15:20:52.548Z,2.55
2022-08-05T15:23:19.995Z,2.38
2022-08-05T15:25:53.029Z,2.15
2022-08-05T15:28:27.753Z,2.45
2022-08-05T15:30:55.732Z,2.47
2022-08-05T15:34:05.761Z,2.72
2022-08-05T15:36:17.329Z,3.22
2022-08-05T15:41:01.109Z,3.30
2022-08-05T15:41:57.231Z,2.90
2022-08-05T15:44:28.050Z,2.53
2022-08-05T15:46:58.092Z,2.75
2022-08-05T15:49:42.223Z,2.30
2022-08-05T15:52:16.909Z,2.55
2022-08-05T15:54:57.510Z,3.78
2022-08-05T15:57:26.795Z,3.70
2022-08-05T16:00:02.525Z,2.60
2022-08-05T16:02:30.348Z,2.40
2022-08-05T16:04:58.964Z,2.70
2022-08-05T16:07:26.472Z,2.10
2022-08-05T16:09:57.106Z,2.20
2022-08-05T16:12:24.774Z,2.40
2022-08-05T16:14:52.571Z,2.28
2022-08-05T16:17:20.062Z,2.60
2022-08-05T16:20:04.251Z,2.45
2022-08-05T16:22:35.047Z,2.50
2022-08-05T16:25:08.213Z,2.42
2022-08-05T16:28:00.655Z,2.03
2022-08-05T16:30:28.745Z,2.35
2022-08-05T16:32:56.706Z,2.30
2022-08-05T16:35:27.672Z,2.25
2022-08-05T16:38:16.146Z,2.65
2022-08-05T16:40:52.139Z,2.60
2022-08-05T16:43:27.808Z,2.60
2022-08-05T16:46:04.915Z,2.63
2022-08-05T16:48:36.023Z,2.45
2022-08-05T16:51:08.687Z,2.03
2022-08-05T16:54:02.866Z,3.03
2022-08-05T16:56:29.984Z,2.13
2022-08-05T16:58:57.878Z,3.65
2022-08-05T17:01:25.456Z,2.58
2022-08-05T17:03:53.076Z,3.05
2022-08-05T17:06:24.544Z,3.38
2022-08-05T17:08:54.178Z,5.13
2022-08-05T17:11:23.930Z,2.50
2022-08-05T17:14:00.442Z,2.45
2022-08-05T17:16:36.576Z,3.58
2022-08-05T17:19:07.341Z,2.95
2022-08-05T17:21:37.226Z,4.25
2022-08-05T17:24:30.278Z,3.20
2022-08-05T17:27:01.151Z,2.75
2022-08-05T17:29:33.608Z,2.80
2022-08-05T17:32:08.276Z,2.80
2022-08-05T17:34:36.013Z,3.13
2022-08-05T17:37:04.680Z,2.85
2022-08-05T17:39:55.118Z,2.67
2022-08-05T17:42:28.938Z,2.47
2022-08-05T17:44:57.678Z,2.80
2022-08-05T17:47:25.081Z,3.83
2022-08-05T17:50:04.168Z,3.10
2022-08-05T17:52:53.357Z,3.33
2022-08-05T17:55:22.787Z,3.22
2022-08-05T17:58:02.203Z,2.35
2022-08-05T18:00:29.970Z,3.05
2022-08-05T18:02:57.524Z,4.10
2022-08-05T18:05:27.896Z,2.88
2022-08-05T18:07:56.915Z,2.72
2022-08-05T18:10:24.560Z,3.28
2022-08-05T18:12:53.137Z,2.50
2022-08-05T18:15:20.619Z,3.10
2022-08-05T18:17:59.133Z,3.72
2022-08-05T18:20:31.551Z,2.97
2022-08-05T18:23:04.837Z,2.50
2022-08-05T18:25:38.985Z,4.40
2022-08-05T18:28:09.858Z,4.05
2022-08-05T18:30:40.176Z,4.57
2022-08-05T18:33:08.594Z,4.10
2022-08-05T18:36:00.067Z,4.60
2022-08-05T18:38:29.221Z,2.83
2022-08-05T18:41:55.935Z,2.38
2022-08-05T18:43:49.067Z,5.28
2022-08-05T18:46:20.267Z,2.20
2022-08-05T18:48:53.846Z,4.40
2022-08-05T18:52:05.768Z,1.90
2022-08-05T18:54:28.502Z,2.08
2022-08-05T18:57:02.312Z,2.20
2022-08-05T18:59:43.239Z,1.83
2022-08-05T19:02:28.672Z,1.92
2022-08-05T19:05:02.396Z,2.10
2022-08-05T19:07:50.086Z,2.95
2022-08-05T19:10:26.670Z,2.75
2022-08-05T19:12:59.490Z,2.67
2022-08-05T19:15:59.815Z,2.05
2022-08-05T19:18:21.949Z,2.75
2022-08-05T19:20:52.411Z,2.22
2022-08-05T19:24:06.839Z,2.63
2022-08-05T19:26:11.252Z,2.75
2022-08-05T19:28:44.053Z,2.13
2022-08-05T19:31:12.937Z,3.80
2022-08-05T19:33:48.537Z,3.17
2022-08-05T19:36:25.987Z,3.17
2022-08-05T19:39:00.942Z,3.10
2022-08-05T19:42:05.341Z,2.90
2022-08-05T19:44:19.642Z,3.35
2022-08-05T19:46:46.808Z,4.35
2022-08-05T19:49:17.273Z,3.92
2022-08-05T19:52:05.668Z,3.40
2022-08-05T19:54:34.202Z,3.70
2022-08-05T19:57:06.704Z,3.78
2022-08-05T19:59:56.169Z,3.60
2022-08-05T20:02:28.171Z,3.85
2022-08-05T20:04:58.610Z,3.10
2022-08-05T20:07:46.538Z,3.45
2022-08-05T20:10:17.171Z,4.00
2022-08-05T20:12:48.416Z,4.03
2022-08-05T20:15:52.423Z,4.10
2022-08-05T20:18:34.018Z,3.70
2022-08-05T20:20:57.642Z,4.93
2022-08-05T20:23:40.362Z,5.25
2022-08-05T20:26:17.139Z,4.40
2022-08-05T20:28:55.812Z,4.18
2022-08-05T20:31:36.818Z,3.75
2022-08-05T20:34:12.545Z,4.03
2022-08-05T20:36:43.543Z,3.75
2022-08-05T20:39:13.467Z,4.28
2022-08-05T20:41:45.404Z,5.43
2022-08-05T20:44:18.455Z,3.95
2022-08-05T20:46:57.358Z,6.65
2022-08-05T20:49:26.143Z,5.15
2022-08-05T20:51:54.180Z,5.30
2022-08-05T20:54:43.261Z,3.95
2022-08-05T20:57:42.061Z,3.85
2022-08-05T21:00:20.638Z,4.15
2022-08-05T21:02:56.966Z,4.57
2022-08-05T21:05:24.893Z,4.25
2022-08-05T21:07:52.553Z,4.47
2022-08-05T21:10:20.524Z,3.97
2022-08-05T21:12:55.558Z,4.07
2022-08-05T21:15:34.052Z,3.20
2022-08-05T21:18:01.330Z,3.63
2022-08-05T21:20:32.872Z,3.92
2022-08-05T21:23:01.029Z,4.47
2022-08-05T21:25:33.934Z,4.63
2022-08-05T21:28:03.314Z,3.72
2022-08-05T21:30:31.720Z,4.95
2022-08-05T21:33:01.825Z,5.82
2022-08-05T21:35:55.435Z,4.80
2022-08-05T21:38:17.177Z,5.82
2022-08-05T21:40:45.086Z,4.30
2022-08-05T21:43:24.053Z,5.72
2022-08-05T21:45:57.584Z,5.85
2022-08-05T21:48:28.880Z,5.18
2022-08-05T21:50:57.368Z,5.72
2022-08-05T21:53:28.142Z,5.13
2022-08-05T21:56:16.438Z,4.45
2022-08-05T21:58:57.191Z,7.55
2022-08-05T22:01:26.281Z,8.13
2022-08-05T22:03:53.991Z,6.70
2022-08-05T22:06:22.755Z,6.90
2022-08-05T22:09:02.221Z,7.20
2022-08-05T22:11:41.544Z,6.00
2022-08-05T22:14:31.337Z,6.70
2022-08-05T22:17:05.124Z,8.40
2022-08-05T22:20:02.013Z,8.23
2022-08-05T22:22:26.887Z,6.55
2022-08-05T22:25:21.115Z,7.88
2022-08-05T22:28:04.854Z,8.30
2022-08-05T22:30:55.859Z,7.38
2022-08-05T22:33:55.836Z,7.40
2022-08-05T22:36:16.334Z,7.13
2022-08-05T22:38:48.324Z,7.35
2022-08-05T22:41:25.967Z,6.20
2022-08-05T22:44:08.266Z,5.97
2022-08-05T22:46:39.964Z,6.07
2022-08-05T22:49:23.669Z,8.75
2022-08-05T22:52:05.351Z,7.10
2022-08-05T22:54:36.392Z,7.97
2022-08-05T22:57:05.536Z,8.40
2022-08-05T22:59:44.114Z,7.13
2022-08-05T23:02:17.899Z,9.60
2022-08-05T23:04:52.348Z,9.88
2022-08-05T23:07:21.887Z,6.57
2022-08-05T23:09:58.070Z,7.00
2022-08-05T23:12:32.843Z,6.75
2022-08-05T23:15:03.959Z,5.90
2022-08-05T23:17:37.975Z,6.57
2022-08-05T23:20:24.405Z,5.57
2022-08-05T23:22:55.940Z,5.80
2022-08-05T23:25:51.589Z,4.35
2022-08-05T23:28:12.044Z,4.07
2022-08-05T23:30:43.754Z,4.28
2022-08-05T23:33:25.719Z,5.07
2022-08-05T23:36:09.937Z,4.15
2022-08-05T23:38:37.915Z,4.43
2022-08-05T23:41:05.142Z,3.92
2022-08-05T23:44:04.947Z,3.80
2022-08-05T23:46:21.956Z,3.70
2022-08-05T23:49:00.918Z,5.15
2022-08-05T23:51:55.156Z,4.60
2022-08-05T23:54:30.269Z,4.00
2022-08-05T23:57:04.765Z,4.35
2022-08-05T23:59:37.740Z,4.07
